sensor_id;sensor_type;location;lat;lon;timestamp;P1;durP1;ratioP1;P2;durP2;ratioP2
66272;SDS011;58450;52.150;4.466;2022-11-20T00:01:05;14.73;;;8.35;;
66272;SDS011;58450;52.150;4.466;2022-11-20T00:03:34;13.98;;;7.22;;
66272;SDS011;58450;52.150;4.466;2022-11-20T00:06:02;14.10;;;7.68;;
66272;SDS011;58450;52.150;4.466;2022-11-20T00:08:32;15.75;;;7.95;;
66272;SDS011;58450;52.150;4.466;2022-11-20T00:11:02;15.23;;;8.23;;
66272;SDS011;58450;52.150;4.466;2022-11-20T00:13:31;15.30;;;8.43;;
66272;SDS011;58450;52.150;4.466;2022-11-20T00:15:59;14.52;;;7.93;;
66272;SDS011;58450;52.150;4.466;2022-11-20T00:18:28;14.93;;;8.23;;
66272;SDS011;58450;52.150;4.466;2022-11-20T00:21:00;16.15;;;8.63;;
66272;SDS011;58450;52.150;4.466;2022-11-20T00:23:28;14.70;;;8.05;;
66272;SDS011;58450;52.150;4.466;2022-11-20T00:26:00;13.50;;;8.23;;
66272;SDS011;58450;52.150;4.466;2022-11-20T00:28:29;14.05;;;7.70;;
66272;SDS011;58450;52.150;4.466;2022-11-20T00:31:00;16.48;;;8.30;;
66272;SDS011;58450;52.150;4.466;2022-11-20T00:33:29;15.25;;;8.13;;
66272;SDS011;58450;52.150;4.466;2022-11-20T00:36:00;14.95;;;8.05;;
66272;SDS011;58450;52.150;4.466;2022-11-20T00:38:29;15.40;;;7.80;;
66272;SDS011;58450;52.150;4.466;2022-11-20T00:40:58;14.52;;;7.82;;
66272;SDS011;58450;52.150;4.466;2022-11-20T00:43:29;15.85;;;8.57;;
66272;SDS011;58450;52.150;4.466;2022-11-20T00:45:57;15.68;;;8.15;;
66272;SDS011;58450;52.150;4.466;2022-11-20T00:48:25;14.10;;;8.15;;
66272;SDS011;58450;52.150;4.466;2022-11-20T00:50:53;16.55;;;8.35;;
66272;SDS011;58450;52.150;4.466;2022-11-20T00:53:21;15.70;;;8.45;;
66272;SDS011;58450;52.150;4.466;2022-11-20T00:55:52;15.95;;;9.20;;
66272;SDS011;58450;52.150;4.466;2022-11-20T00:58:22;15.68;;;9.18;;
66272;SDS011;58450;52.150;4.466;2022-11-20T01:00:52;14.48;;;8.50;;
66272;SDS011;58450;52.150;4.466;2022-11-20T01:03:19;17.15;;;8.60;;
66272;SDS011;58450;52.150;4.466;2022-11-20T01:05:46;13.90;;;8.00;;
66272;SDS011;58450;52.150;4.466;2022-11-20T01:08:14;16.02;;;8.60;;
66272;SDS011;58450;52.150;4.466;2022-11-20T01:10:41;15.38;;;7.80;;
66272;SDS011;58450;52.150;4.466;2022-11-20T01:13:09;17.33;;;8.82;;
66272;SDS011;58450;52.150;4.466;2022-11-20T01:15:55;16.23;;;8.27;;
66272;SDS011;58450;52.150;4.466;2022-11-20T01:18:29;16.20;;;8.77;;
66272;SDS011;58450;52.150;4.466;2022-11-20T01:20:59;15.63;;;8.30;;
66272;SDS011;58450;52.150;4.466;2022-11-20T01:23:32;18.73;;;8.65;;
66272;SDS011;58450;52.150;4.466;2022-11-20T01:26:01;14.85;;;8.13;;
66272;SDS011;58450;52.150;4.466;2022-11-20T01:28:31;15.70;;;8.27;;
66272;SDS011;58450;52.150;4.466;2022-11-20T01:31:00;14.85;;;8.20;;
66272;SDS011;58450;52.150;4.466;2022-11-20T01:33:28;14.70;;;7.85;;
66272;SDS011;58450;52.150;4.466;2022-11-20T01:36:02;14.07;;;8.20;;
66272;SDS011;58450;52.150;4.466;2022-11-20T01:38:32;14.70;;;8.15;;
66272;SDS011;58450;52.150;4.466;2022-11-20T01:40:59;14.70;;;8.15;;
66272;SDS011;58450;52.150;4.466;2022-11-20T01:43:27;16.30;;;8.55;;
66272;SDS011;58450;52.150;4.466;2022-11-20T01:48:47;14.13;;;7.85;;
66272;SDS011;58450;52.150;4.466;2022-11-20T01:51:22;15.25;;;8.52;;
66272;SDS011;58450;52.150;4.466;2022-11-20T01:53:57;16.25;;;8.55;;
66272;SDS011;58450;52.150;4.466;2022-11-20T01:56:30;14.13;;;8.30;;
66272;SDS011;58450;52.150;4.466;2022-11-20T01:59:04;15.25;;;8.48;;
66272;SDS011;58450;52.150;4.466;2022-11-20T02:01:38;13.40;;;7.72;;
66272;SDS011;58450;52.150;4.466;2022-11-20T02:04:06;15.07;;;8.38;;
66272;SDS011;58450;52.150;4.466;2022-11-20T02:06:38;15.63;;;8.02;;
66272;SDS011;58450;52.150;4.466;2022-11-20T02:09:13;16.00;;;8.68;;
66272;SDS011;58450;52.150;4.466;2022-11-20T02:11:41;16.35;;;8.10;;
66272;SDS011;58450;52.150;4.466;2022-11-20T02:14:09;17.55;;;9.85;;
66272;SDS011;58450;52.150;4.466;2022-11-20T02:16:37;19.63;;;9.98;;
66272;SDS011;58450;52.150;4.466;2022-11-20T02:19:16;17.42;;;9.13;;
66272;SDS011;58450;52.150;4.466;2022-11-20T02:21:55;16.63;;;9.10;;
66272;SDS011;58450;52.150;4.466;2022-11-20T02:24:30;17.58;;;9.07;;
66272;SDS011;58450;52.150;4.466;2022-11-20T02:26:59;18.05;;;9.27;;
66272;SDS011;58450;52.150;4.466;2022-11-20T02:29:31;17.35;;;8.93;;
66272;SDS011;58450;52.150;4.466;2022-11-20T02:32:05;18.38;;;9.55;;
66272;SDS011;58450;52.150;4.466;2022-11-20T02:34:33;14.93;;;8.98;;
66272;SDS011;58450;52.150;4.466;2022-11-20T02:37:00;16.73;;;9.02;;
66272;SDS011;58450;52.150;4.466;2022-11-20T02:39:29;16.60;;;9.20;;
66272;SDS011;58450;52.150;4.466;2022-11-20T02:41:57;15.90;;;8.93;;
66272;SDS011;58450;52.150;4.466;2022-11-20T02:44:27;18.50;;;9.05;;
66272;SDS011;58450;52.150;4.466;2022-11-20T02:46:56;16.83;;;9.43;;
66272;SDS011;58450;52.150;4.466;2022-11-20T02:49:24;18.38;;;9.13;;
66272;SDS011;58450;52.150;4.466;2022-11-20T02:51:51;17.92;;;9.63;;
66272;SDS011;58450;52.150;4.466;2022-11-20T02:54:19;18.38;;;10.43;;
66272;SDS011;58450;52.150;4.466;2022-11-20T02:56:48;15.98;;;9.30;;
66272;SDS011;58450;52.150;4.466;2022-11-20T02:59:15;18.27;;;9.57;;
66272;SDS011;58450;52.150;4.466;2022-11-20T03:01:43;17.73;;;9.50;;
66272;SDS011;58450;52.150;4.466;2022-11-20T03:04:10;19.20;;;10.05;;
66272;SDS011;58450;52.150;4.466;2022-11-20T03:06:38;17.27;;;9.63;;
66272;SDS011;58450;52.150;4.466;2022-11-20T03:09:05;17.05;;;9.38;;
66272;SDS011;58450;52.150;4.466;2022-11-20T03:11:33;18.95;;;10.00;;
66272;SDS011;58450;52.150;4.466;2022-11-20T03:14:02;17.05;;;9.93;;
66272;SDS011;58450;52.150;4.466;2022-11-20T03:16:30;18.60;;;10.43;;
66272;SDS011;58450;52.150;4.466;2022-11-20T03:18:59;19.30;;;10.52;;
66272;SDS011;58450;52.150;4.466;2022-11-20T03:21:27;20.08;;;10.10;;
66272;SDS011;58450;52.150;4.466;2022-11-20T03:23:54;19.70;;;10.23;;
66272;SDS011;58450;52.150;4.466;2022-11-20T03:26:22;18.33;;;10.25;;
66272;SDS011;58450;52.150;4.466;2022-11-20T03:28:53;19.00;;;10.13;;
66272;SDS011;58450;52.150;4.466;2022-11-20T03:31:25;17.83;;;10.02;;
66272;SDS011;58450;52.150;4.466;2022-11-20T03:33:56;18.85;;;10.80;;
66272;SDS011;58450;52.150;4.466;2022-11-20T03:36:24;16.20;;;9.23;;
66272;SDS011;58450;52.150;4.466;2022-11-20T03:38:53;19.10;;;10.38;;
66272;SDS011;58450;52.150;4.466;2022-11-20T03:41:23;17.60;;;9.95;;
66272;SDS011;58450;52.150;4.466;2022-11-20T03:43:53;18.80;;;10.30;;
66272;SDS011;58450;52.150;4.466;2022-11-20T03:46:24;20.23;;;10.57;;
66272;SDS011;58450;52.150;4.466;2022-11-20T03:48:53;18.42;;;9.68;;
66272;SDS011;58450;52.150;4.466;2022-11-20T03:51:22;21.13;;;10.55;;
66272;SDS011;58450;52.150;4.466;2022-11-20T03:53:52;19.83;;;10.07;;
66272;SDS011;58450;52.150;4.466;2022-11-20T03:56:22;16.83;;;8.88;;
66272;SDS011;58450;52.150;4.466;2022-11-20T03:58:52;18.02;;;10.13;;
66272;SDS011;58450;52.150;4.466;2022-11-20T04:01:22;19.23;;;10.90;;
66272;SDS011;58450;52.150;4.466;2022-11-20T04:03:53;17.95;;;10.05;;
66272;SDS011;58450;52.150;4.466;2022-11-20T04:06:24;18.77;;;9.60;;
66272;SDS011;58450;52.150;4.466;2022-11-20T04:08:54;18.08;;;10.05;;
66272;SDS011;58450;52.150;4.466;2022-11-20T04:11:22;17.42;;;10.13;;
66272;SDS011;58450;52.150;4.466;2022-11-20T04:13:53;18.20;;;9.95;;
66272;SDS011;58450;52.150;4.466;2022-11-20T04:16:25;19.35;;;10.05;;
66272;SDS011;58450;52.150;4.466;2022-11-20T04:18:56;21.00;;;9.98;;
66272;SDS011;58450;52.150;4.466;2022-11-20T04:21:26;19.15;;;10.40;;
66272;SDS011;58450;52.150;4.466;2022-11-20T04:23:54;19.00;;;10.10;;
66272;SDS011;58450;52.150;4.466;2022-11-20T04:26:23;18.10;;;9.95;;
66272;SDS011;58450;52.150;4.466;2022-11-20T04:28:53;19.92;;;10.38;;
66272;SDS011;58450;52.150;4.466;2022-11-20T04:31:23;20.50;;;11.00;;
66272;SDS011;58450;52.150;4.466;2022-11-20T04:33:54;16.33;;;9.38;;
66272;SDS011;58450;52.150;4.466;2022-11-20T04:36:23;17.92;;;9.65;;
66272;SDS011;58450;52.150;4.466;2022-11-20T04:38:53;18.05;;;10.02;;
66272;SDS011;58450;52.150;4.466;2022-11-20T04:41:22;18.10;;;9.55;;
66272;SDS011;58450;52.150;4.466;2022-11-20T04:43:53;18.52;;;9.88;;
66272;SDS011;58450;52.150;4.466;2022-11-20T04:46:26;20.92;;;11.10;;
66272;SDS011;58450;52.150;4.466;2022-11-20T04:48:55;17.45;;;10.48;;
66272;SDS011;58450;52.150;4.466;2022-11-20T04:51:23;20.00;;;10.90;;
66272;SDS011;58450;52.150;4.466;2022-11-20T04:53:51;20.33;;;10.57;;
66272;SDS011;58450;52.150;4.466;2022-11-20T04:56:18;17.48;;;10.07;;
66272;SDS011;58450;52.150;4.466;2022-11-20T04:58:46;19.38;;;10.57;;
66272;SDS011;58450;52.150;4.466;2022-11-20T05:01:14;18.05;;;10.25;;
66272;SDS011;58450;52.150;4.466;2022-11-20T05:03:45;22.75;;;11.45;;
66272;SDS011;58450;52.150;4.466;2022-11-20T05:06:14;19.88;;;10.98;;
66272;SDS011;58450;52.150;4.466;2022-11-20T05:08:44;20.52;;;11.48;;
66272;SDS011;58450;52.150;4.466;2022-11-20T05:11:12;21.13;;;11.20;;
66272;SDS011;58450;52.150;4.466;2022-11-20T05:13:42;19.77;;;10.45;;
66272;SDS011;58450;52.150;4.466;2022-11-20T05:16:10;20.13;;;11.25;;
66272;SDS011;58450;52.150;4.466;2022-11-20T05:18:40;19.42;;;10.75;;
66272;SDS011;58450;52.150;4.466;2022-11-20T05:21:11;18.42;;;10.25;;
66272;SDS011;58450;52.150;4.466;2022-11-20T05:23:40;18.45;;;10.30;;
66272;SDS011;58450;52.150;4.466;2022-11-20T05:26:11;20.85;;;11.02;;
66272;SDS011;58450;52.150;4.466;2022-11-20T05:28:41;18.77;;;10.20;;
66272;SDS011;58450;52.150;4.466;2022-11-20T05:31:10;22.48;;;11.18;;
66272;SDS011;58450;52.150;4.466;2022-11-20T05:33:40;19.50;;;10.10;;
66272;SDS011;58450;52.150;4.466;2022-11-20T05:36:09;20.42;;;10.82;;
66272;SDS011;58450;52.150;4.466;2022-11-20T05:38:39;22.08;;;11.57;;
66272;SDS011;58450;52.150;4.466;2022-11-20T05:41:08;21.63;;;10.82;;
66272;SDS011;58450;52.150;4.466;2022-11-20T05:43:38;19.33;;;10.50;;
66272;SDS011;58450;52.150;4.466;2022-11-20T05:46:08;18.40;;;10.68;;
66272;SDS011;58450;52.150;4.466;2022-11-20T05:48:39;18.77;;;10.98;;
66272;SDS011;58450;52.150;4.466;2022-11-20T05:51:09;17.50;;;9.65;;
66272;SDS011;58450;52.150;4.466;2022-11-20T05:53:41;19.55;;;10.35;;
66272;SDS011;58450;52.150;4.466;2022-11-20T05:56:10;21.63;;;9.98;;
66272;SDS011;58450;52.150;4.466;2022-11-20T05:58:40;20.73;;;10.43;;
66272;SDS011;58450;52.150;4.466;2022-11-20T06:01:09;19.60;;;10.30;;
66272;SDS011;58450;52.150;4.466;2022-11-20T06:03:39;18.52;;;10.25;;
66272;SDS011;58450;52.150;4.466;2022-11-20T06:06:13;19.00;;;10.00;;
66272;SDS011;58450;52.150;4.466;2022-11-20T06:08:41;18.63;;;9.77;;
66272;SDS011;58450;52.150;4.466;2022-11-20T06:11:09;19.73;;;10.45;;
66272;SDS011;58450;52.150;4.466;2022-11-20T06:13:39;20.98;;;11.40;;
66272;SDS011;58450;52.150;4.466;2022-11-20T06:16:07;19.08;;;9.88;;
66272;SDS011;58450;52.150;4.466;2022-11-20T06:18:35;18.63;;;10.43;;
66272;SDS011;58450;52.150;4.466;2022-11-20T06:21:03;20.52;;;11.02;;
66272;SDS011;58450;52.150;4.466;2022-11-20T06:23:35;20.77;;;10.57;;
66272;SDS011;58450;52.150;4.466;2022-11-20T06:26:03;19.92;;;10.55;;
66272;SDS011;58450;52.150;4.466;2022-11-20T06:28:34;20.20;;;11.07;;
66272;SDS011;58450;52.150;4.466;2022-11-20T06:31:02;21.75;;;11.25;;
66272;SDS011;58450;52.150;4.466;2022-11-20T06:33:31;20.25;;;11.23;;
66272;SDS011;58450;52.150;4.466;2022-11-20T06:36:00;20.52;;;11.00;;
66272;SDS011;58450;52.150;4.466;2022-11-20T06:38:28;20.45;;;10.93;;
66272;SDS011;58450;52.150;4.466;2022-11-20T06:40:58;20.67;;;11.75;;
66272;SDS011;58450;52.150;4.466;2022-11-20T06:43:25;21.08;;;11.75;;
66272;SDS011;58450;52.150;4.466;2022-11-20T06:45:55;21.05;;;10.30;;
66272;SDS011;58450;52.150;4.466;2022-11-20T06:48:28;20.65;;;11.30;;
66272;SDS011;58450;52.150;4.466;2022-11-20T06:50:57;20.20;;;10.73;;
66272;SDS011;58450;52.150;4.466;2022-11-20T06:53:25;22.17;;;11.30;;
66272;SDS011;58450;52.150;4.466;2022-11-20T06:55:55;21.25;;;12.25;;
66272;SDS011;58450;52.150;4.466;2022-11-20T06:58:26;20.25;;;11.50;;
66272;SDS011;58450;52.150;4.466;2022-11-20T07:00:57;19.75;;;11.00;;
66272;SDS011;58450;52.150;4.466;2022-11-20T07:03:25;23.27;;;11.95;;
66272;SDS011;58450;52.150;4.466;2022-11-20T07:05:54;23.55;;;11.88;;
66272;SDS011;58450;52.150;4.466;2022-11-20T07:08:22;21.50;;;11.95;;
66272;SDS011;58450;52.150;4.466;2022-11-20T07:10:50;20.42;;;10.90;;
66272;SDS011;58450;52.150;4.466;2022-11-20T07:13:19;22.33;;;11.95;;
66272;SDS011;58450;52.150;4.466;2022-11-20T07:15:47;22.48;;;11.55;;
66272;SDS011;58450;52.150;4.466;2022-11-20T07:18:14;23.05;;;13.13;;
66272;SDS011;58450;52.150;4.466;2022-11-20T07:20:42;22.88;;;12.60;;
66272;SDS011;58450;52.150;4.466;2022-11-20T07:23:09;22.33;;;12.07;;
66272;SDS011;58450;52.150;4.466;2022-11-20T07:25:37;22.63;;;11.80;;
66272;SDS011;58450;52.150;4.466;2022-11-20T07:28:04;21.45;;;11.82;;
66272;SDS011;58450;52.150;4.466;2022-11-20T07:30:33;21.52;;;11.88;;
66272;SDS011;58450;52.150;4.466;2022-11-20T07:33:01;20.58;;;10.93;;
66272;SDS011;58450;52.150;4.466;2022-11-20T07:35:28;20.67;;;11.30;;
66272;SDS011;58450;52.150;4.466;2022-11-20T07:37:56;23.05;;;12.55;;
66272;SDS011;58450;52.150;4.466;2022-11-20T07:40:23;23.55;;;12.48;;
66272;SDS011;58450;52.150;4.466;2022-11-20T07:42:51;23.27;;;13.20;;
66272;SDS011;58450;52.150;4.466;2022-11-20T07:45:22;23.40;;;13.05;;
66272;SDS011;58450;52.150;4.466;2022-11-20T07:47:52;23.27;;;12.20;;
66272;SDS011;58450;52.150;4.466;2022-11-20T07:50:20;23.30;;;12.88;;
66272;SDS011;58450;52.150;4.466;2022-11-20T07:52:47;22.45;;;12.63;;
66272;SDS011;58450;52.150;4.466;2022-11-20T07:55:15;23.00;;;12.43;;
66272;SDS011;58450;52.150;4.466;2022-11-20T07:57:43;22.80;;;12.98;;
66272;SDS011;58450;52.150;4.466;2022-11-20T08:00:10;23.95;;;12.82;;
66272;SDS011;58450;52.150;4.466;2022-11-20T08:02:39;21.63;;;12.25;;
66272;SDS011;58450;52.150;4.466;2022-11-20T08:05:09;23.55;;;12.50;;
66272;SDS011;58450;52.150;4.466;2022-11-20T08:07:37;22.63;;;12.18;;
66272;SDS011;58450;52.150;4.466;2022-11-20T08:10:06;22.58;;;12.55;;
66272;SDS011;58450;52.150;4.466;2022-11-20T08:12:36;22.25;;;12.38;;
66272;SDS011;58450;52.150;4.466;2022-11-20T08:15:27;21.58;;;12.30;;
66272;SDS011;58450;52.150;4.466;2022-11-20T08:17:58;22.33;;;12.00;;
66272;SDS011;58450;52.150;4.466;2022-11-20T08:20:29;21.35;;;12.35;;
66272;SDS011;58450;52.150;4.466;2022-11-20T08:22:58;22.42;;;12.90;;
66272;SDS011;58450;52.150;4.466;2022-11-20T08:25:27;23.13;;;13.38;;
66272;SDS011;58450;52.150;4.466;2022-11-20T08:27:56;23.88;;;13.73;;
66272;SDS011;58450;52.150;4.466;2022-11-20T08:30:24;24.33;;;13.32;;
66272;SDS011;58450;52.150;4.466;2022-11-20T08:32:53;22.75;;;12.43;;
66272;SDS011;58450;52.150;4.466;2022-11-20T08:35:21;22.85;;;12.75;;
66272;SDS011;58450;52.150;4.466;2022-11-20T08:37:50;22.95;;;12.90;;
66272;SDS011;58450;52.150;4.466;2022-11-20T08:40:18;26.65;;;14.43;;
66272;SDS011;58450;52.150;4.466;2022-11-20T08:42:46;24.75;;;13.60;;
66272;SDS011;58450;52.150;4.466;2022-11-20T08:45:14;24.73;;;13.45;;
66272;SDS011;58450;52.150;4.466;2022-11-20T08:47:43;22.52;;;13.32;;
66272;SDS011;58450;52.150;4.466;2022-11-20T08:50:12;23.50;;;13.50;;
66272;SDS011;58450;52.150;4.466;2022-11-20T08:52:41;21.33;;;12.57;;
66272;SDS011;58450;52.150;4.466;2022-11-20T08:55:11;23.27;;;12.63;;
66272;SDS011;58450;52.150;4.466;2022-11-20T08:57:39;24.73;;;14.02;;
66272;SDS011;58450;52.150;4.466;2022-11-20T09:00:07;24.88;;;13.85;;
66272;SDS011;58450;52.150;4.466;2022-11-20T09:02:36;24.70;;;13.57;;
66272;SDS011;58450;52.150;4.466;2022-11-20T09:05:04;23.52;;;13.88;;
66272;SDS011;58450;52.150;4.466;2022-11-20T09:07:33;23.05;;;13.93;;
66272;SDS011;58450;52.150;4.466;2022-11-20T09:10:00;23.02;;;12.68;;
66272;SDS011;58450;52.150;4.466;2022-11-20T09:12:29;21.60;;;12.88;;
66272;SDS011;58450;52.150;4.466;2022-11-20T09:14:56;24.60;;;13.07;;
66272;SDS011;58450;52.150;4.466;2022-11-20T09:17:24;24.63;;;14.65;;
66272;SDS011;58450;52.150;4.466;2022-11-20T09:19:51;24.25;;;13.93;;
66272;SDS011;58450;52.150;4.466;2022-11-20T09:22:19;23.25;;;13.60;;
66272;SDS011;58450;52.150;4.466;2022-11-20T09:24:46;23.90;;;13.90;;
66272;SDS011;58450;52.150;4.466;2022-11-20T09:27:14;23.38;;;13.73;;
66272;SDS011;58450;52.150;4.466;2022-11-20T09:29:47;23.38;;;13.35;;
66272;SDS011;58450;52.150;4.466;2022-11-20T09:32:15;24.85;;;14.32;;
66272;SDS011;58450;52.150;4.466;2022-11-20T09:34:42;25.98;;;14.38;;
66272;SDS011;58450;52.150;4.466;2022-11-20T09:37:10;24.92;;;13.60;;
66272;SDS011;58450;52.150;4.466;2022-11-20T09:39:37;26.75;;;15.55;;
66272;SDS011;58450;52.150;4.466;2022-11-20T09:42:09;22.83;;;14.02;;
66272;SDS011;58450;52.150;4.466;2022-11-20T09:45:08;25.90;;;14.65;;
66272;SDS011;58450;52.150;4.466;2022-11-20T09:47:52;27.70;;;15.48;;
66272;SDS011;58450;52.150;4.466;2022-11-20T09:50:48;23.13;;;13.70;;
66272;SDS011;58450;52.150;4.466;2022-11-20T09:53:28;25.00;;;14.55;;
66272;SDS011;58450;52.150;4.466;2022-11-20T09:56:09;26.67;;;15.50;;
66272;SDS011;58450;52.150;4.466;2022-11-20T09:58:39;24.95;;;14.60;;
66272;SDS011;58450;52.150;4.466;2022-11-20T10:01:14;25.17;;;14.98;;
66272;SDS011;58450;52.150;4.466;2022-11-20T10:03:48;23.63;;;14.73;;
66272;SDS011;58450;52.150;4.466;2022-11-20T10:06:24;26.85;;;15.88;;
66272;SDS011;58450;52.150;4.466;2022-11-20T10:09:01;24.25;;;14.27;;
66272;SDS011;58450;52.150;4.466;2022-11-20T10:11:46;27.05;;;14.93;;
66272;SDS011;58450;52.150;4.466;2022-11-20T10:14:27;26.42;;;15.30;;
66272;SDS011;58450;52.150;4.466;2022-11-20T10:17:12;28.00;;;15.55;;
66272;SDS011;58450;52.150;4.466;2022-11-20T10:20:02;27.40;;;15.68;;
66272;SDS011;58450;52.150;4.466;2022-11-20T10:22:48;26.17;;;15.93;;
66272;SDS011;58450;52.150;4.466;2022-11-20T10:25:37;24.98;;;15.05;;
66272;SDS011;58450;52.150;4.466;2022-11-20T10:28:10;25.55;;;15.10;;
66272;SDS011;58450;52.150;4.466;2022-11-20T10:30:57;28.33;;;16.00;;
66272;SDS011;58450;52.150;4.466;2022-11-20T10:33:31;28.63;;;16.35;;
66272;SDS011;58450;52.150;4.466;2022-11-20T10:36:05;29.77;;;17.13;;
66272;SDS011;58450;52.150;4.466;2022-11-20T10:38:44;28.30;;;16.40;;
66272;SDS011;58450;52.150;4.466;2022-11-20T10:41:24;29.02;;;16.83;;
66272;SDS011;58450;52.150;4.466;2022-11-20T10:44:01;30.55;;;17.75;;
66272;SDS011;58450;52.150;4.466;2022-11-20T10:46:37;29.35;;;16.50;;
66272;SDS011;58450;52.150;4.466;2022-11-20T10:49:15;30.27;;;16.50;;
66272;SDS011;58450;52.150;4.466;2022-11-20T10:51:52;29.17;;;17.35;;
66272;SDS011;58450;52.150;4.466;2022-11-20T10:54:32;28.48;;;17.13;;
66272;SDS011;58450;52.150;4.466;2022-11-20T10:57:15;30.00;;;16.58;;
66272;SDS011;58450;52.150;4.466;2022-11-20T11:00:00;30.42;;;17.48;;
66272;SDS011;58450;52.150;4.466;2022-11-20T11:02:34;29.73;;;17.30;;
66272;SDS011;58450;52.150;4.466;2022-11-20T11:10:36;29.70;;;16.90;;
66272;SDS011;58450;52.150;4.466;2022-11-20T11:13:21;32.30;;;17.80;;
66272;SDS011;58450;52.150;4.466;2022-11-20T11:15:50;31.00;;;18.23;;
66272;SDS011;58450;52.150;4.466;2022-11-20T11:18:23;34.78;;;19.45;;
66272;SDS011;58450;52.150;4.466;2022-11-20T11:20:54;32.40;;;18.67;;
66272;SDS011;58450;52.150;4.466;2022-11-20T11:23:29;29.75;;;17.98;;
66272;SDS011;58450;52.150;4.466;2022-11-20T11:26:02;33.17;;;18.17;;
66272;SDS011;58450;52.150;4.466;2022-11-20T11:28:32;30.30;;;17.33;;
66272;SDS011;58450;52.150;4.466;2022-11-20T11:31:01;33.45;;;18.88;;
66272;SDS011;58450;52.150;4.466;2022-11-20T11:33:29;29.55;;;17.95;;
66272;SDS011;58450;52.150;4.466;2022-11-20T11:36:02;31.33;;;18.70;;
66272;SDS011;58450;52.150;4.466;2022-11-20T11:38:43;30.15;;;17.50;;
66272;SDS011;58450;52.150;4.466;2022-11-20T11:41:12;27.83;;;16.75;;
66272;SDS011;58450;52.150;4.466;2022-11-20T11:43:49;31.35;;;17.35;;
66272;SDS011;58450;52.150;4.466;2022-11-20T11:46:40;34.92;;;19.02;;
66272;SDS011;58450;52.150;4.466;2022-11-20T11:49:21;34.67;;;19.20;;
66272;SDS011;58450;52.150;4.466;2022-11-20T11:51:58;33.13;;;19.05;;
66272;SDS011;58450;52.150;4.466;2022-11-20T11:54:36;33.88;;;19.08;;
66272;SDS011;58450;52.150;4.466;2022-11-20T11:57:16;32.67;;;18.25;;
66272;SDS011;58450;52.150;4.466;2022-11-20T12:00:00;32.92;;;18.42;;
66272;SDS011;58450;52.150;4.466;2022-11-20T12:02:35;32.63;;;18.20;;
66272;SDS011;58450;52.150;4.466;2022-11-20T12:05:21;34.85;;;18.60;;
66272;SDS011;58450;52.150;4.466;2022-11-20T12:07:55;35.10;;;19.13;;
66272;SDS011;58450;52.150;4.466;2022-11-20T12:10:34;33.78;;;18.35;;
66272;SDS011;58450;52.150;4.466;2022-11-20T12:13:15;32.47;;;18.65;;
66272;SDS011;58450;52.150;4.466;2022-11-20T12:15:52;35.60;;;19.58;;
66272;SDS011;58450;52.150;4.466;2022-11-20T12:18:21;34.33;;;18.92;;
66272;SDS011;58450;52.150;4.466;2022-11-20T12:20:53;36.17;;;19.88;;
66272;SDS011;58450;52.150;4.466;2022-11-20T12:23:39;34.90;;;19.60;;
66272;SDS011;58450;52.150;4.466;2022-11-20T12:26:31;34.70;;;19.42;;
66272;SDS011;58450;52.150;4.466;2022-11-20T12:29:23;38.13;;;20.70;;
66272;SDS011;58450;52.150;4.466;2022-11-20T12:32:19;37.17;;;19.15;;
66272;SDS011;58450;52.150;4.466;2022-11-20T12:35:17;37.20;;;20.83;;
66272;SDS011;58450;52.150;4.466;2022-11-20T12:38:15;37.20;;;20.92;;
66272;SDS011;58450;52.150;4.466;2022-11-20T12:41:13;38.65;;;20.15;;
66272;SDS011;58450;52.150;4.466;2022-11-20T12:44:17;39.22;;;21.25;;
66272;SDS011;58450;52.150;4.466;2022-11-20T12:49:56;38.00;;;20.50;;
66272;SDS011;58450;52.150;4.466;2022-11-20T12:52:37;38.85;;;21.20;;
66272;SDS011;58450;52.150;4.466;2022-11-20T12:55:24;34.67;;;19.35;;
66272;SDS011;58450;52.150;4.466;2022-11-20T12:58:04;39.92;;;20.48;;
66272;SDS011;58450;52.150;4.466;2022-11-20T13:00:46;39.95;;;21.35;;
66272;SDS011;58450;52.150;4.466;2022-11-20T13:06:12;39.80;;;20.65;;
66272;SDS011;58450;52.150;4.466;2022-11-20T13:08:45;41.92;;;22.15;;
66272;SDS011;58450;52.150;4.466;2022-11-20T13:11:23;43.70;;;22.40;;
66272;SDS011;58450;52.150;4.466;2022-11-20T13:14:04;42.63;;;21.52;;
66272;SDS011;58450;52.150;4.466;2022-11-20T13:16:45;37.95;;;20.98;;
66272;SDS011;58450;52.150;4.466;2022-11-20T13:19:21;46.20;;;22.50;;
66272;SDS011;58450;52.150;4.466;2022-11-20T13:21:50;43.92;;;22.15;;
66272;SDS011;58450;52.150;4.466;2022-11-20T13:24:22;42.60;;;22.23;;
66272;SDS011;58450;52.150;4.466;2022-11-20T13:27:01;41.45;;;22.02;;
66272;SDS011;58450;52.150;4.466;2022-11-20T13:29:32;44.80;;;23.05;;
66272;SDS011;58450;52.150;4.466;2022-11-20T13:32:02;43.80;;;22.60;;
66272;SDS011;58450;52.150;4.466;2022-11-20T13:34:35;43.90;;;22.38;;
66272;SDS011;58450;52.150;4.466;2022-11-20T13:37:02;46.90;;;22.73;;
66272;SDS011;58450;52.150;4.466;2022-11-20T13:39:31;45.67;;;23.48;;
66272;SDS011;58450;52.150;4.466;2022-11-20T13:42:03;45.15;;;22.25;;
66272;SDS011;58450;52.150;4.466;2022-11-20T13:44:54;45.95;;;22.88;;
66272;SDS011;58450;52.150;4.466;2022-11-20T13:47:27;42.53;;;20.75;;
66272;SDS011;58450;52.150;4.466;2022-11-20T13:49:57;44.22;;;22.92;;
66272;SDS011;58450;52.150;4.466;2022-11-20T13:52:30;48.17;;;22.83;;
66272;SDS011;58450;52.150;4.466;2022-11-20T13:55:14;46.08;;;23.98;;
66272;SDS011;58450;52.150;4.466;2022-11-20T13:58:01;44.33;;;22.92;;
66272;SDS011;58450;52.150;4.466;2022-11-20T14:00:55;45.83;;;22.60;;
66272;SDS011;58450;52.150;4.466;2022-11-20T14:03:34;45.03;;;22.77;;
66272;SDS011;58450;52.150;4.466;2022-11-20T14:06:03;44.22;;;22.63;;
66272;SDS011;58450;52.150;4.466;2022-11-20T14:08:41;40.83;;;21.60;;
66272;SDS011;58450;52.150;4.466;2022-11-20T14:11:14;46.07;;;23.87;;
66272;SDS011;58450;52.150;4.466;2022-11-20T14:13:55;42.70;;;22.65;;
66272;SDS011;58450;52.150;4.466;2022-11-20T14:16:26;42.63;;;21.95;;
66272;SDS011;58450;52.150;4.466;2022-11-20T14:18:58;46.58;;;23.77;;
66272;SDS011;58450;52.150;4.466;2022-11-20T14:21:54;48.55;;;22.70;;
66272;SDS011;58450;52.150;4.466;2022-11-20T14:24:35;46.35;;;24.52;;
66272;SDS011;58450;52.150;4.466;2022-11-20T14:27:03;48.67;;;24.27;;
66272;SDS011;58450;52.150;4.466;2022-11-20T14:29:34;46.35;;;24.13;;
66272;SDS011;58450;52.150;4.466;2022-11-20T14:32:06;43.90;;;24.10;;
66272;SDS011;58450;52.150;4.466;2022-11-20T14:34:37;46.15;;;23.50;;
66272;SDS011;58450;52.150;4.466;2022-11-20T14:37:10;42.72;;;22.10;;
66272;SDS011;58450;52.150;4.466;2022-11-20T14:39:47;44.78;;;22.30;;
66272;SDS011;58450;52.150;4.466;2022-11-20T14:42:19;47.17;;;22.73;;
66272;SDS011;58450;52.150;4.466;2022-11-20T14:44:51;48.47;;;23.55;;
66272;SDS011;58450;52.150;4.466;2022-11-20T14:47:23;48.33;;;24.15;;
66272;SDS011;58450;52.150;4.466;2022-11-20T14:49:53;49.90;;;25.20;;
66272;SDS011;58450;52.150;4.466;2022-11-20T14:52:24;46.35;;;23.63;;
66272;SDS011;58450;52.150;4.466;2022-11-20T14:54:54;49.67;;;23.83;;
66272;SDS011;58450;52.150;4.466;2022-11-20T14:57:26;52.88;;;25.90;;
66272;SDS011;58450;52.150;4.466;2022-11-20T15:00:17;49.92;;;25.48;;
66272;SDS011;58450;52.150;4.466;2022-11-20T15:02:48;50.60;;;24.05;;
66272;SDS011;58450;52.150;4.466;2022-11-20T15:05:19;52.88;;;25.60;;
66272;SDS011;58450;52.150;4.466;2022-11-20T15:07:50;53.40;;;24.13;;
66272;SDS011;58450;52.150;4.466;2022-11-20T15:10:32;47.58;;;24.27;;